Terminal Aerodrome Forecast
Issued by NWS

Home | Current Version | Previous Version | Text Only | Print | Product List | Glossary On
Versions: 1 2 3 4 5 6 7 8 9 10 11 12 13 14 15
000
FTAK31 PAJN 041740
TAFAGY
TAF
PAGY 041740Z 0418/0518 04008KT P6SM SKC
     FM042100 21011KT P6SM SCT100
     FM050300 21005KT P6SM SCT050 SCT100
     FM051200 21006KT P6SM SCT040 SCT080
     FM051700 21008KT P6SM SCT020 BKN040
      AMD LTD TO CLD VIS AND WIND=

USA.gov is the U.S. government's official web portal to all federal, state and local government web resources and services.